createdAt,value
2023-02-19T00:02:54.699Z,100474.46
2023-02-19T00:07:06.949Z,100477.87
2023-02-19T00:11:19.050Z,100480.59
2023-02-19T00:15:31.243Z,100484.67
2023-02-19T00:19:43.736Z,100485.66
2023-02-19T00:23:55.953Z,100492.39
2023-02-19T00:28:08.090Z,100494.63
2023-02-19T00:32:20.007Z,100495.69
2023-02-19T00:36:34.092Z,100498.95
2023-02-19T00:41:00.237Z,100496.69
2023-02-19T00:45:06.721Z,100497.75
2023-02-19T00:49:18.613Z,100492.92
2023-02-19T00:53:24.060Z,100493.27
2023-02-19T00:57:36.453Z,100497.27
2023-02-19T01:01:48.670Z,100500.76
2023-02-19T01:05:55.230Z,100498.90
2023-02-19T01:10:07.427Z,100504.46
2023-02-19T01:14:19.635Z,100505.22
2023-02-19T01:18:31.520Z,100495.02
2023-02-19T01:22:43.448Z,100493.64
2023-02-19T01:26:55.741Z,100490.85
2023-02-19T01:31:08.251Z,100495.46
2023-02-19T01:35:20.437Z,100498.20
2023-02-19T01:39:33.488Z,100498.33
2023-02-19T01:43:45.548Z,100499.02
2023-02-19T01:47:57.214Z,100499.38
2023-02-19T01:52:09.068Z,100505.98
2023-02-19T01:56:21.307Z,100505.98
2023-02-19T02:00:33.647Z,100506.52
2023-02-19T02:04:46.113Z,100501.52
2023-02-19T02:09:10.632Z,100495.96
2023-02-19T02:13:36.531Z,100500.61
2023-02-19T02:17:54.795Z,100494.17
2023-02-19T02:22:05.135Z,100496.54
2023-02-19T02:26:12.076Z,100493.75
2023-02-19T02:30:27.480Z,100504.63
2023-02-19T02:34:42.572Z,100508.93
2023-02-19T02:38:54.875Z,100491.23
2023-02-19T02:43:07.156Z,100499.52
2023-02-19T02:47:11.896Z,100502.27
2023-02-19T02:51:24.346Z,100498.13
2023-02-19T02:55:36.388Z,100498.44
2023-02-19T02:59:47.271Z,100493.59
2023-02-19T03:03:59.050Z,100502.92
2023-02-19T03:08:10.293Z,100507.42
2023-02-19T03:12:20.976Z,100509.48
2023-02-19T03:16:31.794Z,100515.89
2023-02-19T03:20:44.551Z,100516.52
2023-02-19T03:24:55.061Z,100511.98
2023-02-19T03:29:05.830Z,100509.02
2023-02-19T03:33:15.573Z,100510.85
2023-02-19T03:37:27.691Z,100517.02
2023-02-19T03:41:51.694Z,100521.30
2023-02-19T03:46:11.918Z,100521.73
2023-02-19T03:50:27.534Z,100521.67
2023-02-19T03:54:42.889Z,100524.05
2023-02-19T03:58:53.358Z,100528.83
2023-02-19T04:03:05.292Z,100530.71
2023-02-19T04:07:17.098Z,100541.98
2023-02-19T04:11:28.865Z,100534.52
2023-02-19T04:15:40.455Z,100535.57
2023-02-19T04:19:52.574Z,100542.66
2023-02-19T04:24:02.003Z,100537.98
2023-02-19T04:28:13.959Z,100539.36
2023-02-19T04:32:25.742Z,100537.95
2023-02-19T04:36:32.193Z,100541.55
2023-02-19T04:40:44.564Z,100546.49
2023-02-19T04:44:56.789Z,100540.77
2023-02-19T04:49:02.878Z,100543.01
2023-02-19T04:53:14.905Z,100539.04
2023-02-19T04:57:27.223Z,100544.37
2023-02-19T05:01:39.282Z,100536.91
2023-02-19T05:05:51.296Z,100535.49
2023-02-19T05:09:55.740Z,100535.98
2023-02-19T05:14:07.927Z,100537.13
2023-02-19T05:18:19.799Z,100534.35
2023-02-19T05:22:32.033Z,100538.36
2023-02-19T05:26:46.768Z,100537.17
2023-02-19T05:31:13.542Z,100542.38
2023-02-19T05:35:25.192Z,100542.59
2023-02-19T05:39:36.892Z,100545.24
2023-02-19T05:43:49.171Z,100542.19
2023-02-19T05:48:01.230Z,100544.64
2023-02-19T05:52:13.611Z,100546.70
2023-02-19T05:56:25.744Z,100546.52
2023-02-19T06:00:38.442Z,100553.55
2023-02-19T06:04:53.539Z,100557.61
2023-02-19T06:09:06.127Z,100556.02
2023-02-19T06:13:18.752Z,100556.81
2023-02-19T06:17:30.766Z,100563.70
2023-02-19T06:21:46.292Z,100565.40
2023-02-19T06:25:58.669Z,100563.61
2023-02-19T06:30:10.696Z,100561.36
2023-02-19T06:34:23.046Z,100566.42
2023-02-19T06:38:38.316Z,100567.47
2023-02-19T06:43:04.482Z,100573.20
2023-02-19T06:47:16.684Z,100588.81
2023-02-19T06:51:42.838Z,100603.05
2023-02-19T06:55:48.149Z,100607.96
2023-02-19T07:00:00.117Z,100609.40
2023-02-19T07:04:12.233Z,100618.61
2023-02-19T07:08:24.282Z,100631.95
2023-02-19T07:12:36.283Z,100629.11
2023-02-19T07:16:48.891Z,100634.76
2023-02-19T07:20:59.758Z,100643.89
2023-02-19T07:25:11.980Z,100645.92
2023-02-19T07:29:23.932Z,100648.66
2023-02-19T07:33:35.774Z,100660.56
2023-02-19T07:37:48.285Z,100667.81
2023-02-19T07:42:00.606Z,100676.90
2023-02-19T07:46:12.910Z,100685.79
2023-02-19T07:50:25.278Z,100695.77
2023-02-19T07:54:37.231Z,100693.45
2023-02-19T07:58:49.572Z,100702.04
2023-02-19T08:03:00.535Z,100700.08
2023-02-19T08:07:12.984Z,100702.73
2023-02-19T08:11:24.120Z,100710.05
2023-02-19T08:15:43.472Z,100708.93
2023-02-19T08:19:55.814Z,100717.77
2023-02-19T08:24:26.956Z,100723.64
2023-02-19T08:28:39.058Z,100729.30
2023-02-19T08:32:44.434Z,100729.74
2023-02-19T08:36:56.795Z,100735.58
2023-02-19T08:41:03.448Z,100740.39
2023-02-19T08:45:15.483Z,100746.02
2023-02-19T08:49:22.578Z,100748.52
2023-02-19T08:53:34.551Z,100751.41
2023-02-19T08:57:46.612Z,100755.70
2023-02-19T09:01:53.194Z,100760.30
2023-02-19T09:06:05.245Z,100765.66
2023-02-19T09:10:17.374Z,100766.81
2023-02-19T09:14:29.391Z,100770.40
2023-02-19T09:18:41.414Z,100772.53
2023-02-19T09:23:07.096Z,100770.34
2023-02-19T09:27:19.596Z,100774.58
2023-02-19T09:31:24.450Z,100776.15
2023-02-19T09:35:55.083Z,100776.40
2023-02-19T09:40:06.438Z,100781.64
2023-02-19T09:44:18.560Z,100787.60
2023-02-19T09:48:30.595Z,100789.92
2023-02-19T09:52:48.912Z,100789.88
2023-02-19T09:57:01.174Z,100795.73
2023-02-19T10:01:13.545Z,100802.42
2023-02-19T10:05:26.265Z,100812.04
2023-02-19T10:09:41.255Z,100817.91
2023-02-19T10:14:14.650Z,100817.12
2023-02-19T10:18:26.185Z,100824.89
2023-02-19T10:22:38.887Z,100822.73
2023-02-19T10:26:50.909Z,100823.68
2023-02-19T10:31:03.473Z,100821.98
2023-02-19T10:35:16.073Z,100830.69
2023-02-19T10:39:28.318Z,100835.70
2023-02-19T10:43:40.477Z,100833.19
2023-02-19T10:47:47.457Z,100843.33
2023-02-19T10:52:02.101Z,100847.16
2023-02-19T10:56:14.036Z,100847.42
2023-02-19T11:00:37.956Z,100854.19
2023-02-19T11:04:56.363Z,100861.00
2023-02-19T11:09:09.090Z,100866.57
2023-02-19T11:13:21.100Z,100868.44
2023-02-19T11:17:27.378Z,100868.66
2023-02-19T11:21:59.570Z,100872.91
2023-02-19T11:26:11.931Z,100880.63
2023-02-19T11:30:23.950Z,100884.48
2023-02-19T11:34:41.589Z,100889.33
2023-02-19T11:38:56.530Z,100896.10
2023-02-19T11:43:26.903Z,100904.98
2023-02-19T11:47:45.338Z,100906.13
2023-02-19T11:52:10.001Z,100916.64
2023-02-19T11:56:31.701Z,100926.52
2023-02-19T12:01:02.687Z,100931.29
2023-02-19T12:05:27.317Z,100938.83
2023-02-19T12:09:42.656Z,100941.76
2023-02-19T12:13:54.816Z,100948.85
2023-02-19T12:18:06.892Z,100951.81
2023-02-19T12:22:25.004Z,100959.01
2023-02-19T12:26:40.341Z,100956.75
2023-02-19T12:30:55.340Z,100962.16
2023-02-19T12:35:06.490Z,100965.91
2023-02-19T12:39:24.883Z,100970.79
2023-02-19T12:43:35.853Z,100976.84
2023-02-19T12:47:47.994Z,100978.02
2023-02-19T12:52:09.957Z,100979.84
2023-02-19T12:56:22.221Z,100991.63
2023-02-19T13:00:32.971Z,100988.09
2023-02-19T13:04:50.782Z,100990.33
2023-02-19T13:09:06.713Z,100985.89
2023-02-19T13:13:18.948Z,100998.08
2023-02-19T13:17:25.887Z,101000.07
2023-02-19T13:21:54.669Z,101001.14
2023-02-19T13:26:05.990Z,101005.71
2023-02-19T13:30:20.877Z,101004.48
2023-02-19T13:34:45.300Z,101006.01
2023-02-19T13:38:57.435Z,101014.81
2023-02-19T13:43:12.898Z,101016.08
2023-02-19T13:47:25.187Z,101024.10
2023-02-19T13:51:36.121Z,101022.65
2023-02-19T13:55:47.132Z,101018.02
2023-02-19T14:00:02.117Z,101019.30
2023-02-19T14:04:23.412Z,101015.02
2023-02-19T14:08:35.545Z,101021.95
2023-02-19T14:12:48.143Z,101028.88
2023-02-19T14:17:16.962Z,101033.75
2023-02-19T14:21:29.336Z,101039.09
2023-02-19T14:25:41.311Z,101036.13
2023-02-19T14:29:48.137Z,101036.73
2023-02-19T14:34:00.062Z,101037.34
2023-02-19T14:38:12.711Z,101042.83
2023-02-19T14:42:24.813Z,101050.52
2023-02-19T14:46:37.483Z,101054.27
2023-02-19T14:50:47.102Z,101053.67
2023-02-19T14:54:59.644Z,101056.66
2023-02-19T14:59:11.475Z,101058.84
2023-02-19T15:03:23.645Z,101058.70
2023-02-19T15:07:36.025Z,101066.10
2023-02-19T15:11:48.194Z,101081.91
2023-02-19T15:16:02.899Z,101083.98
2023-02-19T15:20:15.245Z,101093.14
2023-02-19T15:24:27.573Z,101091.67
2023-02-19T15:28:33.772Z,101090.84
2023-02-19T15:32:59.141Z,101104.73
2023-02-19T15:37:11.201Z,101108.58
2023-02-19T15:41:23.614Z,101106.13
2023-02-19T15:45:34.111Z,101110.54
2023-02-19T15:49:49.081Z,101114.34
2023-02-19T15:54:01.359Z,101121.84
2023-02-19T15:58:13.664Z,101122.89
2023-02-19T16:02:27.770Z,101124.13
2023-02-19T16:06:43.164Z,101128.73
2023-02-19T16:10:53.203Z,101129.47
2023-02-19T16:15:20.662Z,101134.58
2023-02-19T16:19:34.850Z,101135.03
2023-02-19T16:23:41.559Z,101142.41
2023-02-19T16:27:54.230Z,101149.00
2023-02-19T16:32:06.850Z,101153.52
2023-02-19T16:36:17.336Z,101163.73
2023-02-19T16:40:21.223Z,101164.98
2023-02-19T16:44:33.220Z,101169.39
2023-02-19T16:48:45.546Z,101168.27
2023-02-19T16:52:57.669Z,101176.09
2023-02-19T16:57:09.975Z,101175.52
2023-02-19T17:01:17.646Z,101166.11
2023-02-19T17:05:43.342Z,101164.88
2023-02-19T17:09:55.404Z,101167.05
2023-02-19T17:14:07.423Z,101162.25
2023-02-19T17:18:20.341Z,101161.56
2023-02-19T17:22:32.416Z,101162.08
2023-02-19T17:26:44.479Z,101170.07
2023-02-19T17:30:59.212Z,101170.63
2023-02-19T17:35:11.062Z,101174.98
2023-02-19T17:39:23.177Z,101175.01
2023-02-19T17:43:35.799Z,101171.90
2023-02-19T17:47:42.165Z,101165.84
2023-02-19T17:51:51.933Z,101166.95
2023-02-19T17:56:03.746Z,101166.14
2023-02-19T18:00:16.057Z,101166.28
2023-02-19T18:04:27.838Z,101157.23
2023-02-19T18:08:39.772Z,101155.16
2023-02-19T18:12:51.968Z,101161.83
2023-02-19T18:17:04.004Z,101162.39
2023-02-19T18:21:15.904Z,101160.17
2023-02-19T18:25:28.141Z,101155.92
2023-02-19T18:29:40.271Z,101184.23
2023-02-19T18:33:52.464Z,101177.64
2023-02-19T18:38:04.499Z,101168.20
2023-02-19T18:42:16.512Z,101156.38
2023-02-19T18:46:28.305Z,101162.58
2023-02-19T18:50:40.989Z,101160.27
2023-02-19T18:54:47.714Z,101161.77
2023-02-19T18:59:08.563Z,101155.00
2023-02-19T19:03:38.429Z,101171.55
2023-02-19T19:07:52.663Z,101172.20
2023-02-19T19:12:06.313Z,101187.52
2023-02-19T19:16:18.261Z,101175.86
2023-02-19T19:20:31.210Z,101178.73
2023-02-19T19:24:47.035Z,101186.30
2023-02-19T19:29:17.741Z,101165.71
2023-02-19T19:33:30.577Z,101164.23
2023-02-19T19:37:43.523Z,101162.69
2023-02-19T19:41:45.450Z,101159.32
2023-02-19T19:46:02.292Z,101164.18
2023-02-19T19:50:07.108Z,101165.36
2023-02-19T19:54:19.278Z,101164.64
2023-02-19T19:58:31.067Z,101159.73
2023-02-19T20:02:42.993Z,101166.36
2023-02-19T20:06:55.085Z,101160.71
2023-02-19T20:11:26.460Z,101139.72
2023-02-19T20:15:37.949Z,101127.16
2023-02-19T20:19:50.402Z,101119.73
2023-02-19T20:24:16.225Z,101107.93
2023-02-19T20:32:54.668Z,101101.83
2023-02-19T20:37:07.067Z,101090.34
2023-02-19T20:41:18.879Z,101086.38
2023-02-19T20:45:31.120Z,101078.90
2023-02-19T20:49:43.681Z,101072.08
2023-02-19T20:53:56.074Z,101062.31
2023-02-19T20:58:08.496Z,101070.70
2023-02-19T21:02:21.215Z,101082.20
2023-02-19T21:06:33.611Z,101109.93
2023-02-19T21:10:46.022Z,101129.21
2023-02-19T21:14:53.739Z,101121.58
2023-02-19T21:19:08.859Z,101139.42
2023-02-19T21:23:26.008Z,101141.55
2023-02-19T21:32:22.547Z,101145.40
2023-02-19T21:36:38.558Z,101146.13
2023-02-19T21:40:57.434Z,101146.39
2023-02-19T21:45:11.782Z,101146.46
2023-02-19T21:49:24.477Z,101142.48
2023-02-19T21:53:37.218Z,101142.66
2023-02-19T21:57:43.468Z,101138.45
2023-02-19T22:01:55.937Z,101137.02
2023-02-19T22:06:08.457Z,101128.23
2023-02-19T22:10:20.990Z,101125.33
2023-02-19T22:14:35.414Z,101140.33
2023-02-19T22:18:48.123Z,101140.58
2023-02-19T22:23:00.610Z,101148.26
2023-02-19T22:27:12.631Z,101154.47
2023-02-19T22:31:25.341Z,101152.30
2023-02-19T22:35:37.599Z,101149.44
2023-02-19T22:39:49.316Z,101148.18
2023-02-19T22:44:01.642Z,101151.19
2023-02-19T22:48:19.257Z,101161.55
2023-02-19T22:52:38.094Z,101164.11
2023-02-19T22:56:49.980Z,101142.23
2023-02-19T23:01:21.211Z,101152.23
2023-02-19T23:05:24.472Z,101151.31
2023-02-19T23:09:38.195Z,101158.61
2023-02-19T23:13:52.195Z,101158.64
2023-02-19T23:18:04.541Z,101161.76
2023-02-19T23:22:17.007Z,101161.45
2023-02-19T23:26:25.943Z,101162.85
2023-02-19T23:30:38.769Z,101164.80
2023-02-19T23:34:51.160Z,101167.56
2023-02-19T23:39:04.170Z,101172.84
2023-02-19T23:43:16.371Z,101171.17
2023-02-19T23:47:30.661Z,101163.48
2023-02-19T23:51:43.151Z,101160.91
2023-02-19T23:55:55.997Z,101150.91
